createdAt,value
2023-08-30T00:00:55.821Z,14.02
2023-08-30T00:04:03.924Z,13.91
2023-08-30T00:07:11.995Z,13.87
2023-08-30T00:10:11.738Z,13.91
2023-08-30T00:13:20.702Z,13.91
2023-08-30T00:16:28.221Z,13.88
2023-08-30T00:19:35.310Z,13.91
2023-08-30T00:22:44.100Z,13.84
2023-08-30T00:25:52.388Z,13.80
2023-08-30T00:28:59.053Z,13.73
2023-08-30T00:32:06.726Z,13.61
2023-08-30T00:35:17.546Z,13.46
2023-08-30T00:38:24.285Z,13.40
2023-08-30T00:41:32.096Z,13.33
2023-08-30T00:44:40.945Z,13.29
2023-08-30T00:47:48.187Z,13.29
2023-08-30T00:50:55.892Z,13.37
2023-08-30T00:54:05.079Z,13.25
2023-08-30T00:57:11.977Z,13.18
2023-08-30T01:00:19.523Z,13.21
2023-08-30T01:03:28.060Z,13.14
2023-08-30T01:06:35.495Z,13.06
2023-08-30T01:09:42.951Z,13.09
2023-08-30T01:12:48.408Z,13.12
2023-08-30T01:15:55.654Z,13.11
2023-08-30T01:19:02.958Z,12.99
2023-08-30T01:22:11.688Z,12.97
2023-08-30T01:25:19.296Z,13.03
2023-08-30T01:28:26.377Z,13.07
2023-08-30T01:31:33.508Z,13.07
2023-08-30T01:34:42.391Z,13.09
2023-08-30T01:37:49.526Z,13.07
2023-08-30T01:40:56.615Z,13.04
2023-08-30T01:44:05.436Z,12.97
2023-08-30T01:47:13.118Z,12.93
2023-08-30T01:50:20.357Z,12.84
2023-08-30T01:53:30.097Z,12.74
2023-08-30T01:56:36.959Z,12.64
2023-08-30T01:59:44.608Z,12.56
2023-08-30T02:02:53.836Z,12.51
2023-08-30T02:06:01.673Z,12.46
2023-08-30T02:09:08.989Z,12.38
2023-08-30T02:12:16.794Z,12.30
2023-08-30T02:15:26.138Z,12.20
2023-08-30T02:18:35.129Z,12.12
2023-08-30T02:21:42.452Z,12.13
2023-08-30T02:24:51.246Z,12.15
2023-08-30T02:27:59.093Z,12.19
2023-08-30T02:31:06.382Z,12.20
2023-08-30T02:34:15.300Z,12.23
2023-08-30T02:37:22.803Z,12.15
2023-08-30T02:40:29.591Z,12.08
2023-08-30T02:43:39.469Z,11.96
2023-08-30T02:46:46.642Z,12.04
2023-08-30T02:49:54.012Z,12.12
2023-08-30T02:53:03.220Z,12.11
2023-08-30T02:56:10.649Z,12.04
2023-08-30T02:59:18.356Z,12.01
2023-08-30T03:02:26.359Z,11.99
2023-08-30T03:05:35.116Z,12.01
2023-08-30T03:08:42.348Z,11.99
2023-08-30T03:11:49.857Z,12.04
2023-08-30T03:14:59.341Z,11.93
2023-08-30T03:18:08.072Z,11.83
2023-08-30T03:21:16.127Z,11.80
2023-08-30T03:24:25.222Z,11.78
2023-08-30T03:27:32.413Z,11.85
2023-08-30T03:30:40.188Z,11.94
2023-08-30T03:33:49.588Z,11.97
2023-08-30T03:36:56.798Z,12.04
2023-08-30T03:40:04.443Z,12.06
2023-08-30T03:43:12.029Z,12.06
2023-08-30T03:46:20.567Z,12.01
2023-08-30T03:49:28.093Z,11.96
2023-08-30T03:52:35.690Z,11.94
2023-08-30T03:55:44.473Z,11.87
2023-08-30T03:58:52.674Z,11.93
2023-08-30T04:01:59.697Z,12.01
2023-08-30T04:05:08.249Z,12.09
2023-08-30T04:08:15.727Z,12.05
2023-08-30T04:11:22.511Z,12.09
2023-08-30T04:14:31.063Z,12.09
2023-08-30T04:17:38.287Z,12.06
2023-08-30T04:20:45.233Z,11.99
2023-08-30T04:23:52.057Z,11.90
2023-08-30T04:27:01.174Z,11.82
2023-08-30T04:30:07.941Z,11.77
2023-08-30T04:33:14.964Z,11.72
2023-08-30T04:36:23.542Z,11.74
2023-08-30T04:39:30.567Z,11.71
2023-08-30T04:42:37.296Z,11.78
2023-08-30T04:45:47.733Z,11.83
2023-08-30T04:48:55.540Z,11.94
2023-08-30T04:52:02.136Z,12.01
2023-08-30T04:55:11.164Z,12.12
2023-08-30T04:58:19.039Z,12.26
2023-08-30T05:01:25.707Z,12.29
2023-08-30T05:04:34.537Z,12.38
2023-08-30T05:07:41.925Z,12.49
2023-08-30T05:10:48.985Z,12.62
2023-08-30T05:13:56.371Z,12.75
2023-08-30T05:17:05.361Z,12.85
2023-08-30T05:20:12.351Z,12.97
2023-08-30T05:23:19.678Z,13.07
2023-08-30T05:26:27.827Z,13.15
2023-08-30T05:29:35.328Z,13.25
2023-08-30T05:32:42.623Z,13.36
2023-08-30T05:35:51.546Z,13.43
2023-08-30T05:38:58.889Z,13.56
2023-08-30T05:42:06.869Z,13.69
2023-08-30T05:45:16.307Z,13.83
2023-08-30T05:48:23.973Z,13.98
2023-08-30T05:51:31.413Z,14.13
2023-08-30T05:54:38.516Z,14.28
2023-08-30T05:57:47.227Z,14.46
2023-08-30T06:00:54.286Z,14.54
2023-08-30T06:04:01.964Z,14.68
2023-08-30T06:07:10.517Z,14.84
2023-08-30T06:10:17.549Z,15.01
2023-08-30T06:13:25.428Z,15.15
2023-08-30T06:16:33.495Z,15.36
2023-08-30T06:19:41.381Z,15.51
2023-08-30T06:22:48.396Z,15.61
2023-08-30T06:25:56.946Z,15.74
2023-08-30T06:29:05.329Z,15.84
2023-08-30T06:32:12.710Z,15.96
2023-08-30T06:35:20.303Z,16.07
2023-08-30T06:38:29.179Z,16.11
2023-08-30T06:41:37.191Z,16.18
2023-08-30T06:44:44.499Z,16.33
2023-08-30T06:47:52.947Z,16.48
2023-08-30T06:51:00.334Z,16.56
2023-08-30T06:54:07.671Z,16.65
2023-08-30T06:57:16.696Z,16.78
2023-08-30T07:00:24.376Z,16.89
2023-08-30T07:03:31.101Z,16.93
2023-08-30T07:06:40.124Z,16.98
2023-08-30T07:09:47.159Z,17.04
2023-08-30T07:12:54.325Z,17.04
2023-08-30T07:16:01.824Z,17.04
2023-08-30T07:19:11.096Z,17.13
2023-08-30T07:22:19.078Z,17.22
2023-08-30T07:25:27.022Z,17.29
2023-08-30T07:29:00.358Z,17.40
2023-08-30T07:31:04.580Z,17.51
2023-08-30T07:34:12.501Z,17.64
2023-08-30T07:37:20.610Z,17.73
2023-08-30T07:40:28.248Z,17.76
2023-08-30T07:43:35.327Z,17.88
2023-08-30T07:46:43.884Z,17.94
2023-08-30T07:49:51.264Z,18.04
2023-08-30T07:52:58.751Z,18.07
2023-08-30T07:56:05.772Z,18.04
2023-08-30T07:59:14.368Z,18.18
2023-08-30T08:02:21.957Z,18.34
2023-08-30T08:05:28.482Z,18.52
2023-08-30T08:08:37.933Z,18.61
2023-08-30T08:11:45.138Z,18.70
2023-08-30T08:14:53.167Z,18.73
2023-08-30T08:18:02.454Z,18.76
2023-08-30T08:21:10.060Z,18.79
2023-08-30T08:24:17.852Z,18.82
2023-08-30T08:27:27.696Z,18.92
2023-08-30T08:30:34.625Z,18.98
2023-08-30T08:33:41.758Z,19.01
2023-08-30T08:36:48.780Z,18.98
2023-08-30T08:39:57.682Z,19.01
2023-08-30T08:43:04.512Z,19.10
2023-08-30T08:46:12.176Z,19.21
2023-08-30T08:49:20.741Z,19.32
2023-08-30T08:52:32.970Z,19.50
2023-08-30T08:55:32.092Z,19.58
2023-08-30T08:58:40.599Z,19.73
2023-08-30T09:01:48.140Z,19.87
2023-08-30T09:04:55.345Z,19.93
2023-08-30T09:08:04.267Z,20.02
2023-08-30T09:11:11.096Z,20.13
2023-08-30T09:14:18.961Z,20.23
2023-08-30T09:17:25.694Z,20.39
2023-08-30T09:20:33.875Z,20.49
2023-08-30T09:23:40.988Z,20.51
2023-08-30T09:26:48.099Z,20.47
2023-08-30T09:29:57.137Z,20.50
2023-08-30T09:33:04.675Z,20.68
2023-08-30T09:36:11.749Z,20.86
2023-08-30T09:39:20.125Z,20.99
2023-08-30T09:42:27.287Z,20.98
2023-08-30T09:45:34.907Z,21.06
2023-08-30T09:48:43.497Z,21.34
2023-08-30T09:51:50.698Z,21.41
2023-08-30T09:54:57.712Z,21.38
2023-08-30T09:58:04.406Z,21.56
2023-08-30T10:01:13.607Z,21.81
2023-08-30T10:04:20.942Z,22.16
2023-08-30T10:08:05.845Z,22.43
2023-08-30T10:11:14.391Z,22.53
2023-08-30T10:14:21.920Z,22.64
2023-08-30T10:17:29.589Z,22.59
2023-08-30T10:20:39.015Z,22.54
2023-08-30T10:23:46.017Z,22.43
2023-08-30T10:26:53.651Z,22.32
2023-08-30T10:30:02.574Z,22.32
2023-08-30T10:33:11.082Z,22.54
2023-08-30T10:36:18.340Z,22.56
2023-08-30T10:39:27.839Z,22.71
2023-08-30T10:42:34.923Z,22.69
2023-08-30T10:45:42.369Z,22.71
2023-08-30T10:48:49.907Z,22.97
2023-08-30T10:51:58.541Z,22.92
2023-08-30T10:55:06.062Z,22.90
2023-08-30T10:58:14.161Z,23.15
2023-08-30T11:01:23.293Z,23.08
2023-08-30T11:04:30.000Z,22.75
2023-08-30T11:07:37.486Z,22.83
2023-08-30T11:10:45.726Z,22.94
2023-08-30T11:13:53.267Z,22.80
2023-08-30T11:17:00.572Z,22.94
2023-08-30T11:20:09.159Z,22.97
2023-08-30T11:23:16.949Z,22.90
2023-08-30T11:26:24.050Z,22.80
2023-08-30T11:29:31.507Z,22.67
2023-08-30T11:32:40.328Z,22.68
2023-08-30T11:35:48.405Z,22.94
2023-08-30T11:38:55.632Z,23.24
2023-08-30T11:42:17.070Z,23.60
2023-08-30T11:45:09.380Z,23.83
2023-08-30T11:48:16.114Z,23.92
2023-08-30T11:51:24.918Z,24.02
2023-08-30T11:54:32.510Z,24.10
2023-08-30T11:57:39.628Z,24.12
2023-08-30T12:00:48.013Z,24.00
2023-08-30T12:03:55.273Z,23.86
2023-08-30T12:07:02.957Z,23.79
2023-08-30T12:10:11.935Z,23.98
2023-08-30T12:13:18.938Z,24.32
2023-08-30T12:16:27.096Z,24.57
2023-08-30T12:19:33.846Z,24.73
2023-08-30T12:22:42.674Z,24.57
2023-08-30T12:25:50.163Z,24.23
2023-08-30T12:28:56.961Z,23.97
2023-08-30T12:32:05.933Z,23.90
2023-08-30T12:35:13.821Z,23.65
2023-08-30T12:38:21.474Z,23.55
2023-08-30T12:41:30.135Z,23.58
2023-08-30T12:44:38.187Z,23.92
2023-08-30T12:47:45.015Z,24.27
2023-08-30T12:50:54.195Z,24.45
2023-08-30T12:54:01.759Z,24.50
2023-08-30T12:57:08.495Z,24.60
2023-08-30T13:00:16.274Z,24.88
2023-08-30T13:03:42.455Z,24.60
2023-08-30T13:06:49.751Z,24.44
2023-08-30T13:09:56.899Z,24.24
2023-08-30T13:13:05.820Z,24.16
2023-08-30T13:16:13.068Z,24.12
2023-08-30T13:19:21.050Z,24.13
2023-08-30T13:22:29.252Z,23.98
2023-08-30T13:25:36.753Z,23.79
2023-08-30T13:28:44.417Z,23.67
2023-08-30T13:31:53.286Z,23.60
2023-08-30T13:35:00.929Z,23.55
2023-08-30T13:38:08.049Z,23.43
2023-08-30T13:41:15.678Z,23.29
2023-08-30T13:44:24.136Z,23.42
2023-08-30T13:47:31.790Z,23.52
2023-08-30T13:50:39.190Z,23.57
2023-08-30T13:53:47.770Z,23.52
2023-08-30T13:56:54.784Z,23.40
2023-08-30T14:00:02.186Z,23.12
2023-08-30T14:03:10.459Z,23.04
2023-08-30T14:06:18.486Z,23.09
2023-08-30T14:09:26.574Z,23.39
2023-08-30T14:12:35.000Z,23.46
2023-08-30T14:15:42.579Z,23.47
2023-08-30T14:18:50.701Z,23.57
2023-08-30T14:21:58.936Z,23.53
2023-08-30T14:25:12.148Z,23.55
2023-08-30T14:28:09.298Z,23.45
2023-08-30T14:31:20.092Z,23.43
2023-08-30T14:34:28.616Z,23.27
2023-08-30T14:37:37.215Z,23.07
2023-08-30T14:40:44.157Z,22.86
2023-08-30T14:43:53.349Z,22.78
2023-08-30T14:47:00.765Z,22.74
2023-08-30T14:50:07.396Z,22.68
2023-08-30T14:53:16.454Z,22.50
2023-08-30T14:56:24.029Z,22.44
2023-08-30T14:59:31.076Z,22.10
2023-08-30T15:02:39.436Z,21.35
2023-08-30T15:05:47.199Z,21.08
2023-08-30T15:08:54.403Z,21.11
2023-08-30T15:12:02.030Z,21.20
2023-08-30T15:15:10.146Z,21.21
2023-08-30T15:18:18.574Z,21.27
2023-08-30T15:21:26.252Z,21.24
2023-08-30T15:25:12.957Z,21.08
2023-08-30T15:28:20.467Z,20.90
2023-08-30T15:31:27.928Z,20.61
2023-08-30T15:34:37.382Z,20.41
2023-08-30T15:37:44.298Z,20.31
2023-08-30T15:40:52.647Z,20.23
2023-08-30T15:44:01.479Z,20.10
2023-08-30T15:47:09.191Z,20.06
2023-08-30T15:50:17.015Z,20.05
2023-08-30T15:53:25.731Z,19.94
2023-08-30T15:56:33.915Z,19.68
2023-08-30T15:59:41.360Z,19.48
2023-08-30T16:02:48.622Z,19.35
2023-08-30T16:05:58.251Z,19.32
2023-08-30T16:09:06.748Z,19.47
2023-08-30T16:12:14.608Z,19.61
2023-08-30T16:15:23.863Z,19.75
2023-08-30T16:18:31.303Z,19.87
2023-08-30T16:21:38.969Z,19.90
2023-08-30T16:24:47.082Z,19.90
2023-08-30T16:27:54.205Z,19.93
2023-08-30T16:31:01.799Z,19.76
2023-08-30T16:34:10.335Z,19.50
2023-08-30T16:37:18.054Z,19.38
2023-08-30T16:40:25.539Z,19.18
2023-08-30T16:43:32.167Z,19.10
2023-08-30T16:46:41.096Z,18.90
2023-08-30T16:49:48.738Z,18.74
2023-08-30T16:52:55.457Z,18.59
2023-08-30T16:56:04.836Z,18.47
2023-08-30T16:59:12.019Z,18.44
2023-08-30T17:02:19.226Z,18.39
2023-08-30T17:05:27.695Z,18.31
2023-08-30T17:08:35.414Z,18.19
2023-08-30T17:11:43.005Z,18.10
2023-08-30T17:14:51.118Z,18.19
2023-08-30T17:17:59.106Z,18.02
2023-08-30T17:21:06.268Z,18.04
2023-08-30T17:24:14.322Z,18.00
2023-08-30T17:27:22.425Z,17.91
2023-08-30T17:30:29.921Z,17.73
2023-08-30T17:33:36.887Z,17.33
2023-08-30T17:36:46.218Z,16.77
2023-08-30T17:39:52.889Z,16.52
2023-08-30T17:43:00.889Z,16.34
2023-08-30T17:46:10.000Z,16.15
2023-08-30T17:49:17.120Z,16.14
2023-08-30T17:52:24.884Z,16.03
2023-08-30T17:55:34.214Z,15.93
2023-08-30T17:58:41.169Z,15.79
2023-08-30T18:01:48.973Z,15.68
2023-08-30T18:04:57.981Z,15.64
2023-08-30T18:08:04.976Z,15.45
2023-08-30T18:11:12.384Z,15.38
2023-08-30T18:14:20.211Z,15.43
2023-08-30T18:17:28.878Z,15.35
2023-08-30T18:20:37.200Z,15.33
2023-08-30T18:23:44.829Z,15.38
2023-08-30T18:26:53.405Z,15.35
2023-08-30T18:30:00.947Z,15.38
2023-08-30T18:33:08.175Z,15.39
2023-08-30T18:36:16.294Z,15.41
2023-08-30T18:39:23.834Z,15.09
2023-08-30T18:42:31.183Z,14.75
2023-08-30T18:45:39.839Z,14.72
2023-08-30T18:48:47.359Z,14.47
2023-08-30T18:51:54.894Z,14.38
2023-08-30T18:55:02.235Z,14.34
2023-08-30T18:58:10.993Z,14.35
2023-08-30T19:01:18.596Z,14.20
2023-08-30T19:04:25.685Z,14.21
2023-08-30T19:07:34.910Z,14.29
2023-08-30T19:10:43.544Z,14.39
2023-08-30T19:13:51.709Z,14.52
2023-08-30T19:17:00.790Z,14.46
2023-08-30T19:20:08.403Z,14.34
2023-08-30T19:23:15.901Z,14.28
2023-08-30T19:26:25.898Z,14.39
2023-08-30T19:29:33.237Z,14.42
2023-08-30T19:32:39.888Z,14.46
2023-08-30T19:35:47.273Z,14.60
2023-08-30T19:38:55.865Z,14.61
2023-08-30T19:42:03.074Z,14.57
2023-08-30T19:45:10.848Z,14.62
2023-08-30T19:48:20.157Z,14.68
2023-08-30T19:51:27.926Z,14.69
2023-08-30T19:54:35.183Z,14.71
2023-08-30T19:57:44.636Z,14.74
2023-08-30T20:00:51.538Z,14.74
2023-08-30T20:03:58.344Z,14.69
2023-08-30T20:07:06.828Z,14.67
2023-08-30T20:10:14.727Z,14.68
2023-08-30T20:13:22.514Z,14.52
2023-08-30T20:16:29.817Z,14.38
2023-08-30T20:19:38.185Z,14.50
2023-08-30T20:22:45.858Z,14.53
2023-08-30T20:25:52.948Z,14.52
2023-08-30T20:29:02.042Z,14.56
2023-08-30T20:32:10.866Z,14.57
2023-08-30T20:35:20.731Z,14.56
2023-08-30T20:38:30.043Z,14.47
2023-08-30T20:41:37.760Z,14.38
2023-08-30T20:44:44.565Z,14.32
2023-08-30T20:47:53.213Z,14.27
2023-08-30T20:51:00.246Z,14.25
2023-08-30T20:54:06.996Z,14.19
2023-08-30T20:57:15.893Z,14.16
2023-08-30T21:00:23.004Z,14.14
2023-08-30T21:03:31.061Z,14.16
2023-08-30T21:06:39.434Z,14.27
2023-08-30T21:09:48.137Z,14.28
2023-08-30T21:15:55.122Z,14.20
2023-08-30T21:19:04.410Z,14.24
2023-08-30T21:22:11.798Z,14.28
2023-08-30T21:25:19.093Z,14.35
2023-08-30T21:28:27.756Z,14.38
2023-08-30T21:31:36.002Z,14.39
2023-08-30T21:34:44.060Z,14.43
2023-08-30T21:37:52.812Z,14.43
2023-08-30T21:41:00.077Z,14.47
2023-08-30T21:44:07.270Z,14.49
2023-08-30T21:47:14.334Z,14.47
2023-08-30T21:50:22.929Z,14.46
2023-08-30T21:53:30.507Z,14.50
2023-08-30T21:56:39.135Z,14.50
2023-08-30T21:59:48.022Z,14.47
2023-08-30T22:02:55.788Z,14.49
2023-08-30T22:06:02.716Z,14.44
2023-08-30T22:09:11.665Z,14.46
2023-08-30T22:12:18.482Z,14.46
2023-08-30T22:15:26.334Z,14.47
2023-08-30T22:18:34.401Z,14.52
2023-08-30T22:21:41.947Z,14.49
2023-08-30T22:24:49.238Z,14.46
2023-08-30T22:27:56.328Z,14.38
2023-08-30T22:31:05.499Z,14.38
2023-08-30T22:34:12.543Z,14.35
2023-08-30T22:37:20.068Z,14.29
2023-08-30T22:40:29.088Z,14.27
2023-08-30T22:43:36.731Z,14.21
2023-08-30T22:46:43.561Z,14.25
2023-08-30T22:49:53.589Z,14.14
2023-08-30T22:53:00.802Z,14.14
2023-08-30T22:56:08.517Z,14.19
2023-08-30T22:59:17.270Z,14.20
2023-08-30T23:02:24.984Z,14.21
2023-08-30T23:05:32.162Z,14.14
2023-08-30T23:08:39.693Z,14.12
2023-08-30T23:11:49.754Z,14.12
2023-08-30T23:14:56.987Z,14.13
2023-08-30T23:18:04.706Z,14.10
2023-08-30T23:21:13.390Z,14.13
2023-08-30T23:24:20.728Z,14.17
2023-08-30T23:27:27.986Z,14.12
2023-08-30T23:30:36.837Z,14.10
2023-08-30T23:33:43.997Z,14.06
2023-08-30T23:36:51.649Z,14.01
2023-08-30T23:39:59.882Z,13.98
2023-08-30T23:43:07.459Z,13.96
2023-08-30T23:46:14.608Z,13.87
2023-08-30T23:49:23.099Z,13.89
2023-08-30T23:52:32.564Z,13.88
2023-08-30T23:55:40.707Z,13.83
2023-08-30T23:58:48.862Z,13.81
